Time;durP1;ratioP1;P1;durP2;ratioP2;P2;SDS_P1;SDS_P2;PMS_P1;PMS_P2;Temp;Humidity;BMP_temperature;BMP_pressure;BME280_temperature;BME280_humidity;BME280_pressure;Samples;Min_cycle;Max_cycle;Signal;HPM_P1;HPM_P2
2021/06/24 09:43:27;;;;;;;3.33;3.08;;;;;;;21.31;77.15;96905.69;5066522;28;20551;-66
2021/06/24 09:48:12;;;;;;;2.60;2.40;;;;;;;22.56;73.81;96908.16;5066975;28;21082;-68
2021/06/24 09:50:38;;;;;;;2.70;2.50;;;;;;;23.14;69.24;96900.97;5059530;28;20205;-68
2021/06/24 09:53:13;;;;;;;2.78;2.67;;;;;;;23.66;66.15;96895.97;5054400;28;20669;-68
2021/06/24 09:55:40;;;;;;;3.00;2.80;;;;;;;23.92;63.91;96898.75;5056716;28;20191;-68
2021/06/24 09:58:16;;;;;;;2.28;2.17;;;;;;;24.25;62.58;96902.69;5063224;28;20212;-68
2021/06/24 10:00:53;;;;;;;2.42;1.92;;;;;;;24.64;59.65;96898.34;5058252;28;20173;-68
2021/06/24 10:03:20;;;;;;;2.10;1.90;;;;;;;24.30;60.61;96891.81;5054213;28;20182;-68
2021/06/24 10:05:48;;;;;;;1.90;1.80;;;;;;;24.91;59.34;96899.97;5056076;28;20643;-68
2021/06/24 10:08:13;;;;;;;1.80;1.70;;;;;;;25.22;57.60;96890.63;5049784;28;20713;-68
2021/06/24 10:10:42;;;;;;;2.15;2.05;;;;;;;25.34;56.41;96895.34;5062064;28;20277;-69
2021/06/24 10:13:11;;;;;;;1.80;1.70;;;;;;;25.33;57.70;96898.34;5056512;28;20651;-68
2021/06/24 10:15:38;;;;;;;2.30;1.80;;;;;;;24.92;57.56;96891.59;5055478;28;20179;-68
2021/06/24 10:18:04;;;;;;;1.30;1.30;;;;;;;25.41;56.05;96886.81;5055032;28;20292;-68
2021/06/24 10:20:32;;;;;;;1.60;1.50;;;;;;;25.67;54.32;96892.94;5064026;28;20178;-68
2021/06/24 10:23:16;;;;;;;1.23;1.23;;;;;;;25.67;53.13;96887.56;5057408;28;20193;-68
2021/06/24 10:25:44;;;;;;;1.20;1.20;;;;;;;25.92;52.07;96897.41;5056894;28;20177;-68
2021/06/24 10:28:10;;;;;;;1.52;1.38;;;;;;;25.89;51.82;96890.00;5063151;28;20643;-69
2021/06/24 10:30:39;;;;;;;1.38;1.30;;;;;;;25.87;52.51;96894.91;5057568;28;20336;-68
2021/06/24 10:33:10;;;;;;;2.55;1.42;;;;;;;25.81;53.70;96892.72;5060292;28;20217;-68
2021/06/24 10:35:37;;;;;;;1.60;1.50;;;;;;;25.84;53.86;96892.09;5051017;28;20182;-69
2021/06/24 10:38:04;;;;;;;15.75;1.70;;;;;;;25.63;54.16;96892.00;5063530;28;20217;-68
2021/06/24 10:40:40;;;;;;;1.38;1.27;;;;;;;25.66;52.95;96888.66;5062243;28;21148;-68
2021/06/24 10:43:15;;;;;;;1.10;1.10;;;;;;;25.40;52.98;96887.94;5056428;28;20186;-68
2021/06/24 10:45:43;;;;;;;1.10;1.10;;;;;;;25.20;51.94;96876.75;5045709;28;20636;-68
2021/06/24 10:48:24;;;;;;;0.93;0.93;;;;;;;25.04;52.73;96886.38;5057155;28;20218;-68
2021/06/24 10:51:04;;;;;;;2.13;1.52;;;;;;;24.99;53.36;96877.72;5047770;28;20276;-68
2021/06/24 10:53:33;;;;;;;1.33;1.25;;;;;;;25.23;53.36;96878.81;5048617;28;20178;-68
2021/06/24 10:55:59;;;;;;;1.20;1.10;;;;;;;25.49;52.92;96870.69;5052866;28;20559;-68
2021/06/24 10:58:26;;;;;;;1.30;1.20;;;;;;;25.73;52.89;96869.38;5050742;28;20209;-68
2021/06/24 11:01:00;;;;;;;1.27;1.20;;;;;;;25.79;53.02;96858.16;5052486;28;20262;-69
2021/06/24 11:03:31;;;;;;;1.10;1.10;;;;;;;25.77;52.80;96862.25;5039097;28;20556;-69
2021/06/24 11:06:16;;;;;;;1.30;1.20;;;;;;;25.60;52.71;96863.88;5047814;28;20230;-68
2021/06/24 11:08:43;;;;;;;1.50;1.40;;;;;;;25.58;52.70;96858.03;5052687;28;20178;-68
2021/06/24 11:11:13;;;;;;;1.30;1.20;;;;;;;25.27;55.36;96854.78;5035405;28;20318;-68
2021/06/24 11:13:47;;;;;;;1.60;1.50;;;;;;;24.99;56.00;96858.94;5025672;28;20650;-68
2021/06/24 11:16:16;;;;;;;1.30;1.30;;;;;;;25.31;56.34;96852.25;5052150;28;20284;-68
2021/06/24 11:18:44;;;;;;;1.20;1.20;;;;;;;25.46;54.43;96838.34;5045179;28;20186;-68
2021/06/24 11:21:18;;;;;;;1.40;1.30;;;;;;;24.67;56.04;96836.84;5037964;28;20236;-68
2021/06/24 11:23:50;;;;;;;1.30;1.20;;;;;;;24.84;56.65;96839.53;5035512;28;20178;-68
2021/06/24 11:26:40;;;;;;;1.20;1.13;;;;;;;24.50;58.21;96830.69;5032853;28;20672;-68
2021/06/24 11:29:09;;;;;;;1.50;1.40;;;;;;;24.55;56.91;96841.25;5042173;28;20218;-68
2021/06/24 11:31:43;;;;;;;1.33;1.33;;;;;;;24.99;55.76;96829.44;5040080;28;20181;-68
2021/06/24 11:37:00;;;;;;;1.42;1.30;;;;;;;25.14;55.22;96815.50;5045858;28;20232;-68
2021/06/24 11:39:40;;;;;;;1.20;1.20;;;;;;;24.76;54.07;96821.53;5043353;28;20198;-68
2021/06/24 11:42:15;;;;;;;1.10;1.05;;;;;;;24.34;56.97;96814.28;5043635;28;20274;-68
2021/06/24 11:44:47;;;;;;;1.50;1.48;;;;;;;24.55;56.07;96819.81;5041440;28;20248;-68
2021/06/24 11:47:19;;;;;;;1.27;1.17;;;;;;;24.63;55.00;96806.41;5039040;28;20262;-68
2021/06/24 12:04:01;;;;;;;0.98;0.98;;;;;;;24.97;54.47;96810.19;5043150;28;20282;-67
2021/06/24 12:06:48;;;;;;;1.20;1.20;;;;;;;24.88;54.77;96814.75;5038532;28;20227;-68
2021/06/24 12:09:20;;;;;;;1.10;1.10;;;;;;;25.08;53.52;96816.78;5033623;28;20635;-66
2021/06/24 12:11:47;;;;;;;1.20;1.10;;;;;;;25.35;53.15;96826.38;5041399;28;20180;-71
2021/06/24 12:14:19;;;;;;;1.02;1.02;;;;;;;25.45;52.13;96824.13;5039689;28;20182;-71
2021/06/24 12:17:06;;;;;;;1.00;1.00;;;;;;;25.96;51.84;96820.47;5043915;28;20281;-71
2021/06/24 12:20:00;;;;;;;1.13;1.13;;;;;;;26.24;50.79;96820.00;5046846;28;20231;-71
2021/06/24 12:22:49;;;;;;;1.48;1.20;;;;;;;26.42;49.97;96824.91;5039663;28;20178;-71
2021/06/24 12:25:20;;;;;;;1.20;1.10;;;;;;;26.60;48.88;96824.78;5034619;28;20203;-71
2021/06/24 12:27:49;;;;;;;2.58;1.00;;;;;;;26.78;48.33;96827.03;5032979;28;20198;-71
2021/06/24 12:30:25;;;;;;;1.00;1.00;;;;;;;27.09;46.36;96823.13;5041133;28;20654;-71
2021/06/24 12:33:03;;;;;;;0.85;0.85;;;;;;;27.12;46.76;96819.78;5040975;28;20239;-71
2021/06/24 12:35:37;;;;;;;1.00;1.00;;;;;;;27.39;45.61;96815.69;5038850;28;20175;-71
2021/06/24 12:38:04;;;;;;;0.90;0.90;;;;;;;27.83;44.69;96811.38;5033691;28;20183;-71
2021/06/24 12:40:36;;;;;;;0.77;0.77;;;;;;;27.91;44.70;96813.19;5039039;28;20274;-71
2021/06/24 12:43:02;;;;;;;0.80;0.80;;;;;;;27.84;42.67;96808.34;5033504;28;20273;-71
2021/06/24 12:45:32;;;;;;;0.40;0.40;;;;;;;28.03;40.24;96805.09;5038311;28;20195;-71
2021/06/24 12:47:59;;;;;;;0.70;0.70;;;;;;;28.03;40.16;96795.06;5031106;28;20234;-71
2021/06/24 12:50:32;;;;;;;0.70;0.70;;;;;;;27.93;41.17;96794.75;5036704;28;20191;-71
2021/06/24 12:53:00;;;;;;;0.60;0.60;;;;;;;27.97;40.81;96795.66;5034621;28;20191;-71
2021/06/24 12:55:41;;;;;;;0.63;0.63;;;;;;;27.75;40.66;96788.03;5040338;28;20178;-71
2021/06/24 12:58:10;;;;;;;0.60;0.60;;;;;;;27.46;41.02;96789.00;5045793;28;20178;-73
2021/06/24 13:00:39;;;;;;;0.70;0.70;;;;;;;27.90;40.14;96792.75;5039654;28;20221;-72
2021/06/24 13:03:05;;;;;;;0.60;0.60;;;;;;;28.22;39.44;96783.75;5041007;28;20190;-71
2021/06/24 13:05:32;;;;;;;0.80;0.80;;;;;;;28.22;39.20;96788.34;5041220;28;20178;-72
2021/06/24 13:08:01;;;;;;;0.70;0.70;;;;;;;27.90;40.97;96780.06;5051048;28;20209;-72
2021/06/24 13:10:27;;;;;;;0.90;0.90;;;;;;;27.54;41.00;96790.81;5042427;28;20193;-72
2021/06/24 13:12:52;;;;;;;1.65;0.90;;;;;;;27.77;40.38;96783.09;5038697;28;20190;-71
2021/06/24 13:15:36;;;;;;;0.70;0.70;;;;;;;27.65;39.11;96781.97;5036149;28;20659;-72
2021/06/24 13:18:01;;;;;;;0.85;0.85;;;;;;;27.60;40.76;96779.50;5028243;28;20182;-70
2021/06/24 13:20:27;;;;;;;0.73;0.73;;;;;;;26.91;41.20;96784.06;5037279;28;20192;-71
2021/06/24 13:23:13;;;;;;;0.70;0.70;;;;;;;26.83;41.68;96788.38;5043333;28;20205;-73
2021/06/24 13:25:42;;;;;;;0.80;0.80;;;;;;;26.99;42.00;96791.25;5040185;28;20240;-73
2021/06/24 13:28:09;;;;;;;0.70;0.70;;;;;;;26.80;42.16;96799.81;5038021;28;20263;-73
2021/06/24 13:30:37;;;;;;;0.80;0.80;;;;;;;27.16;40.77;96802.63;5044573;28;20190;-73
2021/06/24 13:33:02;;;;;;;1.02;1.02;;;;;;;27.21;41.11;96793.53;5037375;28;20178;-73
2021/06/24 13:35:29;;;;;;;0.88;0.88;;;;;;;26.76;41.65;96802.34;5045442;28;20299;-73
2021/06/24 13:38:00;;;;;;;4.60;1.00;;;;;;;26.96;41.38;96803.47;5043701;28;20610;-74
2021/06/24 13:40:46;;;;;;;0.70;0.70;;;;;;;26.70;41.64;96814.41;5027291;28;20179;-73
2021/06/24 13:43:32;;;;;;;0.80;0.80;;;;;;;25.96;44.45;96833.09;5023268;28;20186;-75
2021/06/24 13:45:59;;;;;;;0.98;0.98;;;;;;;25.47;47.91;96853.31;5030559;28;20192;-72
